createdAt,value
2018-11-01T00:00:28.936Z,0
2018-11-01T00:01:28.952Z,0
2018-11-01T00:02:29.204Z,0
2018-11-01T00:03:28.952Z,0
2018-11-01T00:04:28.685Z,0
2018-11-01T00:05:29.273Z,0
2018-11-01T00:06:28.954Z,0
2018-11-01T00:07:28.943Z,0
2018-11-01T00:08:28.961Z,0
2018-11-01T00:09:29.213Z,0
2018-11-01T00:10:29.210Z,0
2018-11-01T00:11:28.959Z,0
2018-11-01T00:12:28.968Z,0
2018-11-01T00:13:28.701Z,0
2018-11-01T00:14:29.231Z,0
2018-11-01T00:15:29.227Z,0
2018-11-01T00:16:28.963Z,0
2018-11-01T00:17:29.241Z,0
2018-11-01T00:18:29.227Z,0
2018-11-01T00:19:28.971Z,0
2018-11-01T00:20:29.024Z,0
2018-11-01T00:21:29.235Z,0
2018-11-01T00:22:29.236Z,0
2018-11-01T00:23:29.017Z,0
2018-11-01T00:24:28.977Z,0
2018-11-01T00:25:28.724Z,0
2018-11-01T00:26:29.248Z,0
2018-11-01T00:27:28.991Z,0
2018-11-01T00:28:28.729Z,0
2018-11-01T00:29:29.249Z,0
2018-11-01T00:30:29.298Z,0
2018-11-01T00:31:29.248Z,0
2018-11-01T00:32:29.000Z,0
2018-11-01T00:33:28.988Z,0
2018-11-01T00:34:29.242Z,0
2018-11-01T00:35:29.234Z,0
2018-11-01T00:36:28.990Z,0
2018-11-01T00:37:29.276Z,0
2018-11-01T00:38:29.254Z,0
2018-11-01T00:39:28.994Z,0
2018-11-01T00:40:29.306Z,0
2018-11-01T00:41:28.987Z,0
2018-11-01T00:42:28.739Z,0
2018-11-01T00:43:29.019Z,0
2018-11-01T00:44:29.006Z,0
2018-11-01T00:45:29.012Z,0
2018-11-01T00:46:29.277Z,0
2018-11-01T00:47:29.274Z,0
2018-11-01T00:48:29.300Z,0
2018-11-01T00:49:28.499Z,0
2018-11-01T00:50:28.758Z,0
2018-11-01T00:51:29.281Z,0
2018-11-01T00:52:29.027Z,0
2018-11-01T00:53:29.023Z,0
2018-11-01T00:54:29.027Z,0
2018-11-01T00:55:29.075Z,0
2018-11-01T00:56:28.795Z,0
2018-11-01T00:57:28.774Z,0
2018-11-01T00:58:29.292Z,0
2018-11-01T00:59:29.032Z,0
2018-11-01T01:00:28.778Z,0
2018-11-01T01:01:29.305Z,0
2018-11-01T01:02:29.042Z,0
2018-11-01T01:03:29.308Z,0
2018-11-01T01:04:29.040Z,0
2018-11-01T01:05:29.306Z,0
2018-11-01T01:06:29.067Z,0
2018-11-01T01:07:29.309Z,0
2018-11-01T01:08:29.314Z,0
2018-11-01T01:09:29.309Z,0
2018-11-01T01:10:29.099Z,0
2018-11-01T01:11:29.310Z,0
2018-11-01T01:12:29.062Z,0
2018-11-01T01:13:29.321Z,0
2018-11-01T01:14:29.054Z,0
2018-11-01T01:15:29.117Z,0
2018-11-01T01:16:29.325Z,0
2018-11-01T01:17:29.062Z,0
2018-11-01T01:18:28.808Z,0
2018-11-01T01:19:28.859Z,0
2018-11-01T01:20:28.913Z,0
2018-11-01T01:21:29.351Z,0
2018-11-01T01:22:29.069Z,0
2018-11-01T01:23:29.331Z,0
2018-11-01T01:24:29.076Z,0
2018-11-01T01:25:29.096Z,0
2018-11-01T01:26:29.080Z,0
2018-11-01T01:27:29.109Z,0
2018-11-01T01:28:29.347Z,0
2018-11-01T01:29:28.834Z,0
2018-11-01T01:30:29.402Z,0
2018-11-01T01:31:28.825Z,0
2018-11-01T01:32:29.092Z,0
2018-11-01T01:33:29.359Z,0
2018-11-01T01:34:29.316Z,0
2018-11-01T01:35:29.105Z,0
2018-11-01T01:36:29.363Z,0
2018-11-01T01:37:29.360Z,0
2018-11-01T01:38:29.367Z,0
2018-11-01T01:39:29.107Z,0
2018-11-01T01:40:29.103Z,0
2018-11-01T01:41:29.111Z,0
2018-11-01T01:42:29.108Z,0
2018-11-01T01:43:29.119Z,0
2018-11-01T01:44:29.112Z,0
2018-11-01T01:45:29.429Z,0
2018-11-01T01:46:29.378Z,0
2018-11-01T01:47:29.379Z,0
2018-11-01T01:48:28.853Z,0
2018-11-01T01:49:29.118Z,0
2018-11-01T01:50:29.680Z,0
2018-11-01T01:51:29.197Z,0
2018-11-01T01:52:29.382Z,0
2018-11-01T01:53:29.121Z,0
2018-11-01T01:54:28.858Z,0
2018-11-01T01:55:29.391Z,0
2018-11-01T01:56:28.876Z,0
2018-11-01T01:57:28.865Z,0
2018-11-01T01:58:29.393Z,0
2018-11-01T01:59:28.880Z,0
2018-11-01T02:00:29.445Z,0
2018-11-01T02:01:29.136Z,0
2018-11-01T02:02:29.140Z,0
2018-11-01T02:03:29.162Z,0
2018-11-01T02:04:29.151Z,0
2018-11-01T02:05:30.556Z,0
2018-11-01T02:06:28.891Z,0
2018-11-01T02:07:28.885Z,0
2018-11-01T02:08:29.158Z,0
2018-11-01T02:09:29.149Z,0
2018-11-01T02:10:29.470Z,0
2018-11-01T02:11:29.440Z,0
2018-11-01T02:12:29.465Z,0
2018-11-01T02:13:29.435Z,0
2018-11-01T02:14:29.164Z,0
2018-11-01T02:15:29.178Z,0
2018-11-01T02:16:29.423Z,0
2018-11-01T02:17:29.178Z,0
2018-11-01T02:18:29.444Z,0
2018-11-01T02:19:29.490Z,0
2018-11-01T02:20:29.227Z,0
2018-11-01T02:21:29.007Z,0
2018-11-01T02:22:29.185Z,0
2018-11-01T02:23:29.211Z,0
2018-11-01T02:24:29.198Z,0
2018-11-01T02:25:29.437Z,0
2018-11-01T02:26:29.185Z,0
2018-11-01T02:27:29.177Z,0
2018-11-01T02:28:28.919Z,0
2018-11-01T02:29:29.181Z,0
2018-11-01T02:30:28.927Z,0
2018-11-01T02:31:29.453Z,0
2018-11-01T02:32:29.191Z,0
2018-11-01T02:33:29.449Z,0
2018-11-01T02:34:29.205Z,0
2018-11-01T02:35:29.551Z,0
2018-11-01T02:36:29.244Z,0
2018-11-01T02:37:28.941Z,0
2018-11-01T02:38:29.465Z,0
2018-11-01T02:39:29.208Z,0
2018-11-01T02:40:29.224Z,0
2018-11-01T02:41:29.213Z,0
2018-11-01T02:42:28.946Z,0
2018-11-01T02:43:29.216Z,0
2018-11-01T02:44:29.479Z,0
2018-11-01T02:45:29.481Z,0
2018-11-01T02:46:29.217Z,0
2018-11-01T02:47:29.216Z,0
2018-11-01T02:48:29.228Z,0
2018-11-01T02:49:29.227Z,0
2018-11-01T02:50:29.578Z,0
2018-11-01T02:51:28.965Z,0
2018-11-01T02:52:29.223Z,0
2018-11-01T02:53:29.486Z,0
2018-11-01T02:54:29.492Z,0
2018-11-01T02:55:29.509Z,0
2018-11-01T02:56:28.973Z,0
2018-11-01T02:57:29.503Z,0
2018-11-01T02:58:29.517Z,0
2018-11-01T02:59:29.078Z,0
2018-11-01T03:00:29.253Z,0
2018-11-01T03:01:29.517Z,0
2018-11-01T03:02:29.249Z,0
2018-11-01T03:03:28.992Z,0
2018-11-01T03:04:29.257Z,0
2018-11-01T03:05:29.321Z,0
2018-11-01T03:06:29.517Z,0
2018-11-01T03:07:29.551Z,0
2018-11-01T03:08:29.268Z,0
2018-11-01T03:09:29.269Z,0
2018-11-01T03:10:28.999Z,0
2018-11-01T03:11:29.280Z,0
2018-11-01T03:12:29.538Z,0
2018-11-01T03:13:28.998Z,0
2018-11-01T03:14:29.012Z,0
2018-11-01T03:15:29.531Z,0
2018-11-01T03:16:29.270Z,0
2018-11-01T03:17:29.272Z,0
2018-11-01T03:18:29.305Z,0
2018-11-01T03:19:28.746Z,0
2018-11-01T03:20:29.584Z,0
2018-11-01T03:21:29.676Z,0
2018-11-01T03:22:29.383Z,0
2018-11-01T03:23:29.553Z,0
2018-11-01T03:24:29.279Z,0
2018-11-01T03:25:29.557Z,0
2018-11-01T03:26:29.502Z,0
2018-11-01T03:27:29.028Z,0
2018-11-01T03:28:29.544Z,0
2018-11-01T03:29:29.288Z,0
2018-11-01T03:30:29.598Z,0
2018-11-01T03:31:29.582Z,0
2018-11-01T03:32:29.321Z,0
2018-11-01T03:33:29.305Z,0
2018-11-01T03:34:29.578Z,0
2018-11-01T03:35:29.087Z,0
2018-11-01T03:36:29.305Z,0
2018-11-01T03:37:29.048Z,0
2018-11-01T03:38:30.493Z,0
2018-11-01T03:39:29.571Z,0
2018-11-01T03:40:29.611Z,0
2018-11-01T03:41:29.048Z,0
2018-11-01T03:42:29.317Z,0
2018-11-01T03:43:29.570Z,0
2018-11-01T03:44:29.585Z,0
2018-11-01T03:45:29.527Z,0
2018-11-01T03:46:29.582Z,0
2018-11-01T03:47:29.324Z,0
2018-11-01T03:48:29.590Z,0
2018-11-01T03:49:29.068Z,0
2018-11-01T03:50:29.675Z,0
2018-11-01T03:51:29.334Z,0
2018-11-01T03:52:29.327Z,0
2018-11-01T03:53:30.065Z,0
2018-11-01T03:54:29.454Z,0
2018-11-01T03:55:29.604Z,0
2018-11-01T03:56:29.335Z,0
2018-11-01T03:57:29.593Z,0
2018-11-01T03:58:29.087Z,0
2018-11-01T03:59:29.338Z,0
2018-11-01T04:00:29.665Z,0
2018-11-01T04:01:29.610Z,0
2018-11-01T04:02:29.350Z,0
2018-11-01T04:03:29.366Z,0
2018-11-01T04:04:29.349Z,0
2018-11-01T04:05:29.619Z,0
2018-11-01T04:06:29.351Z,0
2018-11-01T04:07:29.638Z,0
2018-11-01T04:08:29.614Z,0
2018-11-01T04:09:29.349Z,0
2018-11-01T04:10:29.094Z,0
2018-11-01T04:11:29.362Z,0
2018-11-01T04:12:29.346Z,0
2018-11-01T04:13:29.847Z,0
2018-11-01T04:14:29.621Z,0
2018-11-01T04:15:29.819Z,0
2018-11-01T04:16:29.368Z,0
2018-11-01T04:17:29.625Z,0
2018-11-01T04:18:29.638Z,0
2018-11-01T04:19:28.845Z,0
2018-11-01T04:20:29.110Z,0
2018-11-01T04:21:29.373Z,0
2018-11-01T04:22:29.632Z,0
2018-11-01T04:23:29.819Z,0
2018-11-01T04:24:29.636Z,0
2018-11-01T04:25:29.629Z,0
2018-11-01T04:26:29.380Z,0
2018-11-01T04:27:29.342Z,0
2018-11-01T04:28:29.387Z,0
2018-11-01T04:29:29.604Z,0
2018-11-01T04:30:29.169Z,0
2018-11-01T04:31:29.363Z,0
2018-11-01T04:32:29.347Z,0
2018-11-01T04:33:29.820Z,0
2018-11-01T04:34:29.590Z,0
2018-11-01T04:35:29.423Z,0
2018-11-01T04:36:29.404Z,0
2018-11-01T04:37:29.325Z,0
2018-11-01T04:38:29.070Z,0
2018-11-01T04:39:29.090Z,0
2018-11-01T04:40:29.856Z,0
2018-11-01T04:41:29.335Z,0
2018-11-01T04:42:29.074Z,0
2018-11-01T04:43:29.592Z,0
2018-11-01T04:44:29.160Z,0
2018-11-01T04:45:29.665Z,0
2018-11-01T04:46:29.826Z,0
2018-11-01T04:47:29.251Z,0
2018-11-01T04:48:29.596Z,0
2018-11-01T04:49:29.360Z,0
2018-11-01T04:50:29.080Z,0
2018-11-01T04:51:29.586Z,0
2018-11-01T04:52:29.606Z,0
2018-11-01T04:53:29.097Z,0
2018-11-01T04:54:29.348Z,0
2018-11-01T04:55:29.643Z,0
2018-11-01T04:56:29.601Z,0
2018-11-01T04:57:29.605Z,0
2018-11-01T04:58:29.346Z,0
2018-11-01T04:59:29.101Z,0
2018-11-01T05:00:29.606Z,0
2018-11-01T05:01:29.110Z,0
2018-11-01T05:02:29.367Z,0
2018-11-01T05:03:29.142Z,0
2018-11-01T05:04:29.615Z,0
2018-11-01T05:05:29.680Z,0
2018-11-01T05:06:29.113Z,0
2018-11-01T05:07:29.622Z,0
2018-11-01T05:08:29.119Z,0
2018-11-01T05:09:29.637Z,0
2018-11-01T05:10:29.628Z,0
2018-11-01T05:11:29.384Z,0
2018-11-01T05:12:29.641Z,0
2018-11-01T05:13:29.637Z,0
2018-11-01T05:14:29.124Z,0
2018-11-01T05:15:29.716Z,0
2018-11-01T05:16:29.632Z,0
2018-11-01T05:17:29.646Z,0
2018-11-01T05:18:29.635Z,0
2018-11-01T05:19:29.398Z,0
2018-11-01T05:20:29.925Z,0
2018-11-01T05:21:29.647Z,0
2018-11-01T05:22:29.646Z,0
2018-11-01T05:23:29.637Z,0
2018-11-01T05:24:29.157Z,0
2018-11-01T05:25:29.718Z,0
2018-11-01T05:26:29.407Z,0
2018-11-01T05:27:29.658Z,0
2018-11-01T05:28:29.651Z,0
2018-11-01T05:29:29.561Z,0
2018-11-01T05:30:29.648Z,4
2018-11-01T05:31:29.396Z,4
2018-11-01T05:32:29.404Z,4
2018-11-01T05:33:29.407Z,4
2018-11-01T05:34:29.797Z,4
2018-11-01T05:35:30.457Z,4
2018-11-01T05:36:29.429Z,4
2018-11-01T05:37:29.670Z,4
2018-11-01T05:38:29.409Z,4
2018-11-01T05:39:29.153Z,4
2018-11-01T05:40:29.677Z,8
2018-11-01T05:41:29.415Z,8
2018-11-01T05:42:29.689Z,4
2018-11-01T05:43:29.163Z,4
2018-11-01T05:44:29.417Z,4
2018-11-01T05:45:29.719Z,8
2018-11-01T05:46:29.674Z,8
2018-11-01T05:47:29.680Z,8
2018-11-01T05:48:29.672Z,8
2018-11-01T05:49:29.667Z,12
2018-11-01T05:50:29.470Z,12
2018-11-01T05:51:29.431Z,12
2018-11-01T05:52:29.677Z,20
2018-11-01T05:53:29.678Z,24
2018-11-01T05:54:29.170Z,24
2018-11-01T05:55:29.173Z,28
2018-11-01T05:56:29.426Z,32
2018-11-01T05:57:29.696Z,36
2018-11-01T05:58:29.427Z,40
2018-11-01T05:59:29.684Z,48
2018-11-01T06:00:29.432Z,56
2018-11-01T06:01:29.687Z,64
2018-11-01T06:02:29.688Z,72
2018-11-01T06:03:29.691Z,76
2018-11-01T06:04:29.430Z,84
2018-11-01T06:05:29.655Z,88
2018-11-01T06:06:29.179Z,96
2018-11-01T06:07:29.447Z,104
2018-11-01T06:08:29.441Z,108
2018-11-01T06:09:29.455Z,124
2018-11-01T06:10:29.806Z,132
2018-11-01T06:11:29.698Z,144
2018-11-01T06:12:30.192Z,160
2018-11-01T06:13:29.707Z,172
2018-11-01T06:14:29.700Z,192
2018-11-01T06:15:29.716Z,212
2018-11-01T06:16:29.701Z,240
2018-11-01T06:17:29.454Z,268
2018-11-01T06:18:29.198Z,296
2018-11-01T06:19:29.459Z,324
2018-11-01T06:20:30.078Z,352
2018-11-01T06:21:29.713Z,376
2018-11-01T06:22:29.704Z,396
2018-11-01T06:23:29.707Z,416
2018-11-01T06:24:29.709Z,440
2018-11-01T06:25:29.470Z,468
2018-11-01T06:26:29.705Z,496
2018-11-01T06:27:29.715Z,524
2018-11-01T06:28:29.719Z,548
2018-11-01T06:29:29.461Z,568
2018-11-01T06:30:30.052Z,588
2018-11-01T06:31:29.719Z,604
2018-11-01T06:32:29.469Z,616
2018-11-01T06:33:29.725Z,624
2018-11-01T06:34:29.469Z,640
2018-11-01T06:35:29.827Z,656
2018-11-01T06:36:29.473Z,672
2018-11-01T06:37:29.469Z,692
2018-11-01T06:38:29.225Z,712
2018-11-01T06:39:29.223Z,728
2018-11-01T06:40:29.733Z,744
2018-11-01T06:41:29.732Z,756
2018-11-01T06:42:29.730Z,764
2018-11-01T06:43:29.735Z,768
2018-11-01T06:44:30.129Z,772
2018-11-01T06:45:29.724Z,776
2018-11-01T06:46:29.718Z,780
2018-11-01T06:47:29.240Z,788
2018-11-01T06:48:29.789Z,796
2018-11-01T06:49:29.743Z,812
2018-11-01T06:50:29.524Z,832
2018-11-01T06:51:29.224Z,844
2018-11-01T06:52:30.143Z,864
2018-11-01T06:53:29.733Z,872
2018-11-01T06:54:29.736Z,880
2018-11-01T06:55:29.515Z,888
2018-11-01T06:56:29.255Z,900
2018-11-01T06:57:29.765Z,920
2018-11-01T06:58:30.530Z,928
2018-11-01T06:59:30.363Z,936
2018-11-01T07:00:29.510Z,944
2018-11-01T07:01:29.772Z,952
2018-11-01T07:02:29.769Z,960
2018-11-01T07:03:29.779Z,972
2018-11-01T07:04:29.521Z,988
2018-11-01T07:05:29.682Z,1000
2018-11-01T07:06:29.522Z,1012
2018-11-01T07:07:29.525Z,1016
2018-11-01T07:08:29.791Z,1012
2018-11-01T07:09:29.778Z,1020
2018-11-01T07:10:29.783Z,1032
2018-11-01T07:11:29.993Z,1052
2018-11-01T07:12:29.784Z,1080
2018-11-01T07:13:29.784Z,1108
2018-11-01T07:14:29.540Z,1132
2018-11-01T07:15:29.535Z,1156
2018-11-01T07:16:29.785Z,1172
2018-11-01T07:17:30.882Z,1192
2018-11-01T07:18:29.792Z,1216
2018-11-01T07:19:29.816Z,1244
2018-11-01T07:20:29.848Z,1272
2018-11-01T07:21:29.804Z,1308
2018-11-01T07:22:29.292Z,1344
2018-11-01T07:23:29.811Z,1380
2018-11-01T07:24:29.558Z,1412
2018-11-01T07:25:30.407Z,1448
2018-11-01T07:26:30.258Z,1500
2018-11-01T07:27:29.307Z,1556
2018-11-01T07:28:29.837Z,1612
2018-11-01T07:29:29.562Z,1664
2018-11-01T07:30:29.829Z,1716
2018-11-01T07:31:29.569Z,1760
2018-11-01T07:32:29.944Z,1804
2018-11-01T07:33:29.829Z,1864
2018-11-01T07:34:29.812Z,1932
2018-11-01T07:35:29.891Z,2000
2018-11-01T07:36:29.574Z,2092
2018-11-01T07:37:29.581Z,2200
2018-11-01T07:38:29.856Z,2272
2018-11-01T07:39:29.582Z,2304
2018-11-01T07:40:29.601Z,2300
2018-11-01T07:41:29.333Z,2268
2018-11-01T07:42:29.584Z,2236
2018-11-01T07:43:29.587Z,2212
2018-11-01T07:44:29.589Z,2208
2018-11-01T07:45:29.853Z,2204
2018-11-01T07:46:29.606Z,2212
2018-11-01T07:47:29.861Z,2204
2018-11-01T07:48:30.000Z,2188
2018-11-01T07:49:29.353Z,2168
2018-11-01T07:50:29.661Z,2140
2018-11-01T07:51:29.612Z,2116
2018-11-01T07:52:29.362Z,2112
2018-11-01T07:53:29.874Z,2120
2018-11-01T07:54:29.623Z,2132
2018-11-01T07:55:29.622Z,2152
2018-11-01T07:56:29.622Z,2180
2018-11-01T07:57:29.908Z,2216
2018-11-01T07:58:30.067Z,2268
2018-11-01T07:59:29.876Z,2316
2018-11-01T08:00:29.889Z,2360
2018-11-01T08:01:29.893Z,2384
2018-11-01T08:02:29.389Z,2392
2018-11-01T08:03:29.909Z,2388
2018-11-01T08:04:29.394Z,2372
2018-11-01T08:05:29.711Z,2364
2018-11-01T08:06:29.645Z,2348
2018-11-01T08:07:29.394Z,2348
2018-11-01T08:08:29.652Z,2376
2018-11-01T08:09:29.657Z,2432
2018-11-01T08:10:29.698Z,2520
2018-11-01T08:11:29.974Z,2624
2018-11-01T08:12:29.658Z,2736
2018-11-01T08:13:29.912Z,2820
2018-11-01T08:14:29.660Z,2876
2018-11-01T08:15:29.462Z,2908
2018-11-01T08:16:29.975Z,2920
2018-11-01T08:17:29.669Z,2912
2018-11-01T08:18:29.928Z,2896
2018-11-01T08:19:30.230Z,2868
2018-11-01T08:20:30.752Z,2820
2018-11-01T08:21:29.909Z,2768
2018-11-01T08:22:29.685Z,2712
2018-11-01T08:23:29.932Z,2672
2018-11-01T08:24:29.931Z,2644
2018-11-01T08:25:29.696Z,2624
2018-11-01T08:26:29.944Z,2608
2018-11-01T08:27:29.957Z,2588
2018-11-01T08:28:29.972Z,2580
2018-11-01T08:29:29.957Z,2572
2018-11-01T08:30:29.841Z,2568
2018-11-01T08:31:29.963Z,2568
2018-11-01T08:32:29.716Z,2556
2018-11-01T08:33:29.972Z,2536
2018-11-01T08:34:29.467Z,2512
2018-11-01T08:35:29.974Z,2472
2018-11-01T08:36:29.979Z,2420
2018-11-01T08:37:29.730Z,2364
2018-11-01T08:38:29.243Z,2328
2018-11-01T08:39:30.547Z,2300
2018-11-01T08:40:30.000Z,2276
2018-11-01T08:41:29.993Z,2272
2018-11-01T08:42:29.491Z,2284
2018-11-01T08:43:29.758Z,2300
2018-11-01T08:44:29.773Z,2320
2018-11-01T08:45:30.064Z,2344
2018-11-01T08:46:30.018Z,2360
2018-11-01T08:47:29.762Z,2372
2018-11-01T08:48:30.022Z,2392
2018-11-01T08:49:30.636Z,2420
2018-11-01T08:50:29.787Z,2460
2018-11-01T08:51:30.027Z,2496
2018-11-01T08:52:29.795Z,2528
2018-11-01T08:53:29.782Z,2560
2018-11-01T08:54:30.042Z,2588
2018-11-01T08:55:30.043Z,2624
2018-11-01T08:56:29.792Z,2672
2018-11-01T08:57:29.794Z,2748
2018-11-01T08:58:29.815Z,2828
2018-11-01T08:59:29.827Z,2884
2018-11-01T09:00:29.860Z,2896
2018-11-01T09:01:30.171Z,2868
2018-11-01T09:02:30.070Z,2840
2018-11-01T09:03:30.070Z,2828
2018-11-01T09:04:29.822Z,2824
2018-11-01T09:05:29.875Z,2832
2018-11-01T09:06:29.824Z,2812
2018-11-01T09:07:29.967Z,2800
2018-11-01T09:08:29.837Z,2800
2018-11-01T09:09:29.837Z,2808
2018-11-01T09:10:30.540Z,2804
2018-11-01T09:11:30.066Z,2784
2018-11-01T09:12:29.626Z,2764
2018-11-01T09:13:30.589Z,2704
2018-11-01T09:14:30.106Z,2672
2018-11-01T09:15:29.889Z,2668
2018-11-01T09:16:30.107Z,2676
2018-11-01T09:17:30.146Z,2688
2018-11-01T09:18:29.843Z,2708
2018-11-01T09:19:30.277Z,2724
2018-11-01T09:20:29.879Z,2756
2018-11-01T09:21:29.856Z,2816
2018-11-01T09:22:29.874Z,2852
2018-11-01T09:23:30.130Z,2852
2018-11-01T09:24:29.887Z,2828
2018-11-01T09:25:30.140Z,2792
2018-11-01T09:26:29.890Z,2776
2018-11-01T09:27:29.902Z,2776
2018-11-01T09:28:30.147Z,2756
2018-11-01T09:29:30.149Z,2728
2018-11-01T09:30:30.203Z,2688
2018-11-01T09:31:29.908Z,2664
2018-11-01T09:32:29.904Z,2680
2018-11-01T09:33:30.162Z,2704
2018-11-01T09:34:30.175Z,2740
2018-11-01T09:35:30.496Z,2788
2018-11-01T09:36:30.167Z,2836
2018-11-01T09:37:30.205Z,2880
2018-11-01T09:38:29.924Z,2908
2018-11-01T09:39:29.924Z,2900
2018-11-01T09:40:29.945Z,2880
2018-11-01T09:41:30.199Z,2856
2018-11-01T09:42:30.194Z,2824
2018-11-01T09:43:29.936Z,2792
2018-11-01T09:44:30.202Z,2764
2018-11-01T09:45:30.257Z,2732
2018-11-01T09:46:31.253Z,2696
2018-11-01T09:47:31.589Z,2652
2018-11-01T09:48:29.951Z,2624
2018-11-01T09:49:29.964Z,2604
2018-11-01T09:50:29.985Z,2592
2018-11-01T09:51:30.211Z,2576
2018-11-01T09:52:30.218Z,2556
2018-11-01T09:53:29.972Z,2532
2018-11-01T09:54:29.978Z,2516
2018-11-01T09:55:29.806Z,2516
2018-11-01T09:56:30.792Z,2520
2018-11-01T09:57:29.988Z,2520
2018-11-01T09:58:29.982Z,2536
2018-11-01T09:59:30.246Z,2580
2018-11-01T10:00:30.314Z,2624
2018-11-01T10:01:30.269Z,2664
2018-11-01T10:02:30.253Z,2704
2018-11-01T10:03:30.257Z,2760
2018-11-01T10:04:30.012Z,2820
2018-11-01T10:05:30.266Z,2900
2018-11-01T10:06:30.271Z,2976
2018-11-01T10:07:30.271Z,3024
2018-11-01T10:08:30.024Z,3020
2018-11-01T10:09:30.281Z,2972
2018-11-01T10:10:29.831Z,2912
2018-11-01T10:11:30.289Z,2884
2018-11-01T10:12:30.280Z,2904
2018-11-01T10:13:30.291Z,2968
2018-11-01T10:14:30.036Z,3068
2018-11-01T10:15:30.533Z,3220
2018-11-01T10:16:30.752Z,3392
2018-11-01T10:17:32.481Z,3524
2018-11-01T10:18:32.448Z,3620
2018-11-01T10:19:30.299Z,3700
2018-11-01T10:20:30.435Z,3796
2018-11-01T10:21:30.522Z,3892
2018-11-01T10:22:30.938Z,3976
2018-11-01T10:23:30.319Z,4096
2018-11-01T10:24:30.338Z,4244
2018-11-01T10:25:30.959Z,4380
2018-11-01T10:26:30.344Z,4476
2018-11-01T10:27:30.607Z,4516
2018-11-01T10:28:30.339Z,4580
2018-11-01T10:29:30.091Z,4632
2018-11-01T10:30:30.145Z,4672
2018-11-01T10:31:30.363Z,4728
2018-11-01T10:32:30.093Z,4836
2018-11-01T10:33:30.117Z,4968
2018-11-01T10:34:30.100Z,5104
2018-11-01T10:35:31.565Z,5264
2018-11-01T10:36:30.122Z,5420
2018-11-01T10:37:30.108Z,5536
2018-11-01T10:38:29.881Z,5588
2018-11-01T10:39:30.372Z,5636
2018-11-01T10:40:30.394Z,5732
2018-11-01T10:41:30.392Z,5856
2018-11-01T10:42:30.145Z,5972
2018-11-01T10:43:30.401Z,6068
2018-11-01T10:44:30.416Z,6144
2018-11-01T10:45:30.200Z,6136
2018-11-01T10:46:30.402Z,6088
2018-11-01T10:47:30.234Z,6020
2018-11-01T10:48:29.901Z,6012
2018-11-01T10:49:30.465Z,6104
2018-11-01T10:50:30.421Z,6336
2018-11-01T10:51:30.164Z,6656
2018-11-01T10:52:30.171Z,7104
2018-11-01T10:53:30.462Z,7500
2018-11-01T10:54:30.135Z,7824
2018-11-01T10:55:29.949Z,8040
2018-11-01T10:56:30.444Z,8140
2018-11-01T10:57:30.193Z,8160
2018-11-01T10:58:30.444Z,8060
2018-11-01T10:59:30.190Z,7852
2018-11-01T11:00:31.700Z,7656
2018-11-01T11:01:30.191Z,7400
2018-11-01T11:02:30.442Z,7216
2018-11-01T11:03:30.455Z,7024
2018-11-01T11:04:30.466Z,6908
2018-11-01T11:05:30.208Z,6932
2018-11-01T11:06:30.454Z,7076
2018-11-01T11:07:30.219Z,7228
2018-11-01T11:08:30.480Z,7304
2018-11-01T11:09:30.489Z,7288
2018-11-01T11:10:30.477Z,7292
2018-11-01T11:11:30.013Z,7276
2018-11-01T11:12:30.270Z,7340
2018-11-01T11:13:30.509Z,7236
2018-11-01T11:14:30.207Z,7076
2018-11-01T11:15:30.568Z,7028
2018-11-01T11:16:30.529Z,7052
2018-11-01T11:17:30.534Z,7124
2018-11-01T11:18:30.542Z,7164
2018-11-01T11:19:30.538Z,7224
2018-11-01T11:20:31.309Z,7248
2018-11-01T11:21:30.562Z,7256
2018-11-01T11:22:30.301Z,7164
2018-11-01T11:23:30.573Z,7196
2018-11-01T11:24:30.402Z,7276
2018-11-01T11:25:30.623Z,7392
2018-11-01T11:26:30.321Z,7480
2018-11-01T11:27:30.601Z,7488
2018-11-01T11:28:30.589Z,7424
2018-11-01T11:29:30.087Z,7408
2018-11-01T11:30:30.052Z,7396
2018-11-01T11:31:30.351Z,7344
2018-11-01T11:32:30.354Z,7276
2018-11-01T11:33:30.363Z,7200
2018-11-01T11:34:30.624Z,7132
2018-11-01T11:35:30.789Z,7036
2018-11-01T11:36:30.375Z,6924
2018-11-01T11:37:30.629Z,6816
2018-11-01T11:38:30.385Z,6720
2018-11-01T11:39:30.903Z,6648
2018-11-01T11:40:30.396Z,6604
2018-11-01T11:41:30.653Z,6616
2018-11-01T11:42:30.402Z,6588
2018-11-01T11:43:30.671Z,6640
2018-11-01T11:44:30.430Z,6680
2018-11-01T11:45:30.220Z,6760
2018-11-01T11:46:30.689Z,6844
2018-11-01T11:47:30.476Z,6888
2018-11-01T11:48:30.909Z,6936
2018-11-01T11:49:30.428Z,6932
2018-11-01T11:50:30.429Z,6868
2018-11-01T11:51:30.733Z,6784
2018-11-01T11:52:30.439Z,6804
2018-11-01T11:53:30.689Z,6800
2018-11-01T11:54:30.215Z,6784
2018-11-01T11:55:30.717Z,6808
2018-11-01T11:56:30.726Z,6856
2018-11-01T11:57:30.229Z,6872
2018-11-01T11:58:30.737Z,6904
2018-11-01T11:59:30.765Z,6872
2018-11-01T12:00:30.294Z,6820
2018-11-01T12:01:30.777Z,6740
2018-11-01T12:02:31.363Z,6644
2018-11-01T12:03:30.525Z,6568
2018-11-01T12:04:30.786Z,6496
2018-11-01T12:05:31.425Z,6460
2018-11-01T12:06:30.887Z,6432
2018-11-01T12:07:30.540Z,6412
2018-11-01T12:08:30.286Z,6388
2018-11-01T12:09:30.543Z,6384
2018-11-01T12:10:30.397Z,6392
2018-11-01T12:11:30.566Z,6412
2018-11-01T12:12:30.569Z,6456
2018-11-01T12:13:30.568Z,6496
2018-11-01T12:14:30.829Z,6560
2018-11-01T12:15:30.912Z,6664
2018-11-01T12:16:30.835Z,6712
2018-11-01T12:17:30.589Z,6672
2018-11-01T12:18:30.840Z,6672
2018-11-01T12:19:30.618Z,6680
2018-11-01T12:20:30.911Z,6676
2018-11-01T12:21:30.609Z,6708
2018-11-01T12:22:31.354Z,6756
2018-11-01T12:23:30.374Z,6844
2018-11-01T12:24:30.625Z,6896
2018-11-01T12:25:30.627Z,6900
2018-11-01T12:26:30.891Z,6884
2018-11-01T12:27:30.890Z,6868
2018-11-01T12:28:31.439Z,6780
2018-11-01T12:29:30.909Z,6684
2018-11-01T12:30:30.656Z,6568
2018-11-01T12:31:30.923Z,6476
2018-11-01T12:32:30.929Z,6340
2018-11-01T12:33:30.943Z,6200
2018-11-01T12:34:30.443Z,6096
2018-11-01T12:35:30.907Z,6048
2018-11-01T12:36:30.948Z,6044
2018-11-01T12:37:31.020Z,6032
2018-11-01T12:38:30.454Z,6012
2018-11-01T12:39:30.710Z,5932
2018-11-01T12:40:31.028Z,5812
2018-11-01T12:41:30.559Z,5676
2018-11-01T12:42:30.219Z,5532
2018-11-01T12:43:30.991Z,5436
2018-11-01T12:44:30.996Z,5424
2018-11-01T12:45:30.770Z,5456
2018-11-01T12:46:31.011Z,5500
2018-11-01T12:47:31.005Z,5496
2018-11-01T12:48:31.014Z,5496
2018-11-01T12:49:31.079Z,5484
2018-11-01T12:50:31.343Z,5432
2018-11-01T12:51:31.028Z,5356
2018-11-01T12:52:31.038Z,5316
2018-11-01T12:53:31.043Z,5292
2018-11-01T12:54:30.792Z,5268
2018-11-01T12:55:30.799Z,5240
2018-11-01T12:56:31.587Z,5204
2018-11-01T12:57:30.818Z,5144
2018-11-01T12:58:31.094Z,5056
2018-11-01T12:59:30.574Z,4976
2018-11-01T13:00:30.839Z,4924
2018-11-01T13:01:31.089Z,4916
2018-11-01T13:02:31.540Z,4920
2018-11-01T13:03:30.853Z,4904
2018-11-01T13:04:31.122Z,4844
2018-11-01T13:05:30.987Z,4764
2018-11-01T13:06:31.121Z,4708
2018-11-01T13:07:30.878Z,4656
2018-11-01T13:08:30.895Z,4668
2018-11-01T13:09:30.878Z,4712
2018-11-01T13:10:31.272Z,4796
2018-11-01T13:11:30.940Z,4836
2018-11-01T13:12:31.152Z,4896
2018-11-01T13:13:30.646Z,4900
2018-11-01T13:14:31.158Z,4864
2018-11-01T13:15:31.167Z,4772
2018-11-01T13:16:31.169Z,4656
2018-11-01T13:17:30.957Z,4588
2018-11-01T13:18:31.179Z,4576
2018-11-01T13:19:30.950Z,4580
2018-11-01T13:20:31.202Z,4564
2018-11-01T13:21:31.254Z,4536
2018-11-01T13:22:31.223Z,4552
2018-11-01T13:23:31.206Z,4592
2018-11-01T13:24:30.962Z,4684
2018-11-01T13:25:31.250Z,4816
2018-11-01T13:26:31.221Z,4980
2018-11-01T13:27:31.225Z,5152
2018-11-01T13:28:31.234Z,5348
2018-11-01T13:29:31.744Z,5536
2018-11-01T13:30:31.237Z,5760
2018-11-01T13:31:31.298Z,6084
2018-11-01T13:32:31.287Z,6156
2018-11-01T13:33:31.263Z,6524
2018-11-01T13:34:30.758Z,6420
2018-11-01T13:35:31.907Z,6768
2018-11-01T13:36:31.022Z,7060
2018-11-01T13:37:31.283Z,7616
2018-11-01T13:38:31.035Z,7836
2018-11-01T13:39:31.087Z,8292
2018-11-01T13:40:32.891Z,8684
2018-11-01T13:41:31.281Z,9024
2018-11-01T13:42:31.057Z,8636
2018-11-01T13:43:31.054Z,8780
2018-11-01T13:44:30.820Z,7728
2018-11-01T13:45:31.330Z,7352
2018-11-01T13:46:30.991Z,7584
2018-11-01T13:47:32.215Z,7528
2018-11-01T13:48:31.798Z,7112
2018-11-01T13:49:30.840Z,7088
2018-11-01T13:50:31.120Z,7160
2018-11-01T13:51:31.409Z,8732
2018-11-01T13:52:31.366Z,8304
2018-11-01T13:53:31.374Z,12280
2018-11-01T13:54:31.598Z,54880
2018-11-01T13:55:31.385Z,78592
2018-11-01T13:56:31.684Z,72000